createdAt,value
2022-10-06T00:00:00.061Z,14.41
2022-10-06T00:03:01.496Z,14.39
2022-10-06T00:06:03.700Z,14.38
2022-10-06T00:09:05.032Z,14.29
2022-10-06T00:12:07.015Z,14.23
2022-10-06T00:15:10.598Z,14.23
2022-10-06T00:18:11.952Z,14.12
2022-10-06T00:21:13.768Z,14.12
2022-10-06T00:24:15.174Z,14.04
2022-10-06T00:27:16.561Z,14.03
2022-10-06T00:30:20.744Z,13.99
2022-10-06T00:33:23.776Z,14.00
2022-10-06T00:36:25.229Z,13.96
2022-10-06T00:39:26.597Z,13.93
2022-10-06T00:42:30.846Z,13.90
2022-10-06T00:45:46.253Z,13.86
2022-10-06T00:48:53.178Z,13.81
2022-10-06T00:51:59.837Z,13.76
2022-10-06T00:55:01.398Z,13.61
2022-10-06T00:58:04.246Z,13.53
2022-10-06T01:01:08.478Z,13.44
2022-10-06T01:04:13.548Z,13.36
2022-10-06T01:07:18.050Z,13.26
2022-10-06T01:10:20.018Z,13.16
2022-10-06T01:13:22.260Z,13.13
2022-10-06T01:16:25.798Z,13.03
2022-10-06T01:19:49.189Z,12.99
2022-10-06T01:22:55.608Z,12.99
2022-10-06T01:25:58.570Z,12.91
2022-10-06T01:29:00.114Z,12.88
2022-10-06T01:32:01.862Z,12.82
2022-10-06T01:35:04.803Z,12.76
2022-10-06T01:38:06.184Z,12.70
2022-10-06T01:41:09.232Z,12.68
2022-10-06T01:44:10.576Z,12.70
2022-10-06T01:47:12.068Z,12.69
2022-10-06T01:50:14.174Z,12.68
2022-10-06T01:53:17.044Z,12.64
2022-10-06T01:56:18.379Z,12.63
2022-10-06T01:59:20.549Z,12.66
2022-10-06T02:02:22.172Z,12.76
2022-10-06T02:05:23.583Z,12.78
2022-10-06T02:08:27.724Z,12.72
2022-10-06T02:11:31.876Z,12.67
2022-10-06T02:14:33.552Z,12.61
2022-10-06T02:17:34.944Z,12.53
2022-10-06T02:20:36.496Z,12.52
2022-10-06T02:23:37.869Z,12.50
2022-10-06T02:26:39.246Z,12.56
2022-10-06T02:29:40.712Z,12.53
2022-10-06T02:32:43.269Z,12.49
2022-10-06T02:35:45.785Z,12.50
2022-10-06T02:38:48.257Z,12.52
2022-10-06T02:41:50.115Z,12.52
2022-10-06T02:44:51.497Z,12.48
2022-10-06T02:47:56.406Z,12.43
2022-10-06T02:51:00.546Z,12.39
2022-10-06T02:54:01.954Z,12.37
2022-10-06T02:57:03.413Z,12.35
2022-10-06T03:00:06.708Z,12.25
2022-10-06T03:03:08.943Z,12.21
2022-10-06T03:06:14.942Z,12.24
2022-10-06T03:09:16.487Z,12.19
2022-10-06T03:12:18.498Z,12.13
2022-10-06T03:15:19.994Z,12.10
2022-10-06T03:18:21.372Z,12.07
2022-10-06T03:21:28.638Z,12.02
2022-10-06T03:24:30.135Z,11.97
2022-10-06T03:27:33.629Z,11.90
2022-10-06T03:30:37.776Z,11.88
2022-10-06T03:33:39.920Z,11.85
2022-10-06T03:36:41.999Z,11.82
2022-10-06T03:39:43.415Z,11.86
2022-10-06T03:42:46.539Z,11.84
2022-10-06T03:45:58.585Z,11.76
2022-10-06T03:49:00.560Z,11.75
2022-10-06T03:52:03.511Z,11.73
2022-10-06T03:55:10.069Z,11.70
2022-10-06T03:58:11.668Z,11.67
2022-10-06T04:01:15.042Z,11.61
2022-10-06T04:04:16.475Z,11.55
2022-10-06T04:07:19.857Z,11.54
2022-10-06T04:10:21.293Z,11.49
2022-10-06T04:13:22.749Z,11.47
2022-10-06T04:16:26.439Z,11.42
2022-10-06T04:19:28.219Z,11.40
2022-10-06T04:22:30.521Z,11.41
2022-10-06T04:25:33.150Z,11.39
2022-10-06T04:28:36.299Z,11.22
2022-10-06T04:31:39.332Z,11.32
2022-10-06T04:34:43.018Z,11.30
2022-10-06T04:37:44.560Z,11.27
2022-10-06T04:40:45.878Z,11.25
2022-10-06T04:43:48.262Z,11.23
2022-10-06T04:46:53.232Z,11.22
2022-10-06T04:49:55.463Z,11.20
2022-10-06T04:52:57.159Z,11.18
2022-10-06T04:56:05.623Z,11.16
2022-10-06T04:59:08.674Z,11.15
2022-10-06T05:02:13.085Z,11.07
2022-10-06T05:05:16.023Z,11.08
2022-10-06T05:08:17.654Z,11.06
2022-10-06T05:11:23.682Z,11.02
2022-10-06T05:14:27.571Z,11.01
2022-10-06T05:17:29.065Z,11.00
2022-10-06T05:20:30.476Z,10.96
2022-10-06T05:23:34.901Z,10.94
2022-10-06T05:26:36.755Z,10.89
2022-10-06T05:29:40.759Z,10.88
2022-10-06T05:32:45.673Z,10.84
2022-10-06T05:35:51.988Z,10.85
2022-10-06T05:38:53.604Z,10.86
2022-10-06T05:41:55.144Z,10.86
2022-10-06T05:44:56.561Z,10.85
2022-10-06T05:47:57.973Z,10.89
2022-10-06T05:51:05.586Z,10.90
2022-10-06T05:54:07.659Z,10.92
2022-10-06T05:57:09.025Z,10.99
2022-10-06T06:00:10.866Z,11.01
2022-10-06T06:03:14.386Z,11.02
2022-10-06T06:06:19.582Z,11.09
2022-10-06T06:09:22.107Z,11.16
2022-10-06T06:12:28.962Z,11.33
2022-10-06T06:15:49.349Z,11.37
2022-10-06T06:18:50.827Z,11.62
2022-10-06T06:21:52.897Z,11.72
2022-10-06T06:24:54.306Z,11.67
2022-10-06T06:27:56.005Z,11.77
2022-10-06T06:31:10.180Z,13.00
2022-10-06T06:34:11.799Z,13.89
2022-10-06T06:37:15.406Z,14.31
2022-10-06T06:40:19.359Z,14.62
2022-10-06T06:43:20.774Z,14.56
2022-10-06T06:49:39.955Z,15.34
2022-10-06T06:52:43.138Z,15.54
2022-10-06T06:55:49.015Z,15.61
2022-10-06T06:58:50.511Z,15.89
2022-10-06T07:01:52.821Z,16.33
2022-10-06T07:04:56.659Z,15.99
2022-10-06T07:07:58.179Z,16.34
2022-10-06T07:10:59.605Z,16.53
2022-10-06T07:14:06.943Z,16.38
2022-10-06T07:17:08.992Z,16.71
2022-10-06T07:20:13.180Z,16.30
2022-10-06T07:23:18.377Z,14.96
2022-10-06T07:26:20.548Z,14.13
2022-10-06T07:29:25.154Z,13.95
2022-10-06T07:32:28.205Z,13.75
2022-10-06T07:35:29.973Z,13.63
2022-10-06T07:38:32.428Z,13.54
2022-10-06T07:41:33.913Z,13.55
2022-10-06T07:44:36.985Z,13.51
2022-10-06T07:47:38.753Z,13.48
2022-10-06T07:50:41.112Z,13.39
2022-10-06T07:53:43.071Z,13.45
2022-10-06T07:56:56.462Z,13.54
2022-10-06T08:00:02.029Z,13.52
2022-10-06T08:03:14.176Z,13.60
2022-10-06T08:06:15.593Z,13.56
2022-10-06T08:09:16.932Z,13.57
2022-10-06T08:12:18.278Z,13.50
2022-10-06T08:15:19.749Z,13.60
2022-10-06T08:18:44.607Z,13.58
2022-10-06T08:21:42.418Z,13.83
2022-10-06T08:25:04.727Z,13.96
2022-10-06T08:28:05.050Z,13.81
2022-10-06T08:31:07.654Z,13.84
2022-10-06T08:34:11.920Z,13.95
2022-10-06T08:37:20.250Z,14.08
2022-10-06T08:40:22.259Z,14.21
2022-10-06T08:43:25.819Z,14.35
2022-10-06T08:46:44.648Z,14.40
2022-10-06T08:49:48.316Z,14.61
2022-10-06T08:53:16.436Z,14.62
2022-10-06T08:56:22.743Z,14.71
2022-10-06T08:59:24.684Z,14.94
2022-10-06T09:02:32.291Z,15.08
2022-10-06T09:05:33.985Z,15.13
2022-10-06T09:08:50.208Z,15.25
2022-10-06T09:12:04.225Z,15.32
2022-10-06T09:15:16.397Z,15.25
2022-10-06T09:18:24.341Z,15.43
2022-10-06T09:21:35.472Z,15.72
2022-10-06T09:24:43.577Z,15.68
2022-10-06T09:27:53.114Z,15.82
2022-10-06T09:30:55.486Z,15.96
2022-10-06T09:34:18.302Z,15.84
2022-10-06T09:37:19.633Z,15.50
2022-10-06T09:40:48.081Z,15.60
2022-10-06T09:43:55.858Z,15.82
2022-10-06T09:46:57.213Z,15.98
2022-10-06T09:50:23.030Z,16.12
2022-10-06T09:53:24.430Z,16.04
2022-10-06T09:56:25.819Z,16.43
2022-10-06T09:59:40.172Z,16.78
2022-10-06T10:02:41.913Z,16.94
2022-10-06T10:05:51.692Z,16.87
2022-10-06T10:09:20.693Z,16.76
2022-10-06T10:12:25.587Z,16.88
2022-10-06T10:15:50.142Z,17.11
2022-10-06T10:18:52.226Z,17.46
2022-10-06T10:21:54.362Z,17.11
2022-10-06T10:25:19.027Z,16.68
2022-10-06T10:28:34.812Z,17.00
2022-10-06T10:31:36.139Z,16.46
2022-10-06T10:35:12.632Z,16.39
2022-10-06T10:38:22.375Z,16.68
2022-10-06T10:41:28.156Z,16.58
2022-10-06T10:44:34.652Z,16.17
2022-10-06T10:47:43.328Z,16.34
2022-10-06T10:51:01.007Z,16.32
2022-10-06T10:54:22.948Z,16.71
2022-10-06T10:57:33.144Z,17.12
2022-10-06T11:00:41.146Z,17.35
2022-10-06T11:03:43.236Z,17.11
2022-10-06T11:07:06.437Z,17.16
2022-10-06T11:10:13.865Z,17.27
2022-10-06T11:13:35.401Z,17.21
2022-10-06T11:16:59.881Z,17.06
2022-10-06T11:20:38.177Z,17.18
2022-10-06T11:24:18.100Z,16.39
2022-10-06T11:27:36.644Z,16.06
2022-10-06T11:30:56.951Z,15.70
2022-10-06T11:34:01.097Z,15.72
2022-10-06T11:37:07.047Z,16.34
2022-10-06T11:40:39.081Z,16.58
2022-10-06T11:44:02.033Z,16.97
2022-10-06T11:47:07.948Z,17.37
2022-10-06T11:50:32.201Z,17.41
2022-10-06T11:53:33.482Z,17.42
2022-10-06T11:56:38.761Z,17.44
2022-10-06T11:59:40.127Z,17.55
2022-10-06T12:02:43.495Z,17.61
2022-10-06T12:06:00.208Z,17.55
2022-10-06T12:09:01.573Z,17.26
2022-10-06T12:12:15.067Z,17.16
2022-10-06T12:17:05.958Z,16.88
2022-10-06T12:19:12.762Z,16.40
2022-10-06T12:22:31.473Z,16.82
2022-10-06T12:25:53.122Z,17.35
2022-10-06T12:29:02.119Z,17.64
2022-10-06T12:32:34.712Z,17.55
2022-10-06T12:35:38.183Z,17.75
2022-10-06T12:38:39.488Z,17.68
2022-10-06T12:42:01.111Z,17.48
2022-10-06T12:45:15.567Z,17.58
2022-10-06T12:48:25.706Z,17.49
2022-10-06T12:54:56.876Z,17.25
2022-10-06T12:57:58.540Z,17.21
2022-10-06T13:01:02.590Z,17.21
2022-10-06T13:04:04.066Z,17.11
2022-10-06T13:07:45.304Z,17.12
2022-10-06T13:10:46.629Z,16.96
2022-10-06T13:13:51.495Z,16.95
2022-10-06T13:16:52.976Z,16.91
2022-10-06T13:19:55.571Z,16.89
2022-10-06T13:23:10.179Z,16.82
2022-10-06T13:26:21.257Z,16.72
2022-10-06T13:29:24.607Z,16.76
2022-10-06T13:32:25.981Z,16.80
2022-10-06T13:35:27.492Z,16.81
2022-10-06T13:38:28.875Z,16.61
2022-10-06T13:41:35.714Z,16.57
2022-10-06T13:44:41.642Z,16.57
2022-10-06T13:47:43.041Z,16.54
2022-10-06T13:50:46.633Z,16.63
2022-10-06T13:53:48.467Z,16.54
2022-10-06T13:56:49.844Z,16.49
2022-10-06T14:00:03.589Z,16.39
2022-10-06T14:03:06.945Z,16.33
2022-10-06T14:06:11.051Z,16.32
2022-10-06T14:09:12.456Z,16.29
2022-10-06T14:12:17.937Z,16.30
2022-10-06T14:15:22.596Z,16.28
2022-10-06T14:18:26.976Z,16.17
2022-10-06T14:21:38.341Z,16.11
2022-10-06T14:24:50.973Z,16.05
2022-10-06T14:27:52.316Z,15.99
2022-10-06T14:30:53.766Z,15.97
2022-10-06T14:33:56.393Z,15.97
2022-10-06T14:36:57.731Z,15.90
2022-10-06T14:39:59.327Z,15.92
2022-10-06T14:43:00.990Z,15.93
2022-10-06T14:46:05.479Z,15.96
2022-10-06T14:49:09.729Z,15.93
2022-10-06T14:52:11.125Z,15.88
2022-10-06T14:55:12.600Z,15.79
2022-10-06T14:58:13.922Z,15.83
2022-10-06T15:01:15.778Z,15.82
2022-10-06T15:04:19.450Z,15.79
2022-10-06T15:07:20.802Z,15.72
2022-10-06T15:10:22.153Z,15.70
2022-10-06T15:13:23.570Z,15.60
2022-10-06T15:16:26.611Z,15.55
2022-10-06T15:19:28.152Z,15.27
2022-10-06T15:22:29.519Z,15.37
2022-10-06T15:25:30.874Z,15.37
2022-10-06T15:28:33.590Z,15.34
2022-10-06T15:31:37.483Z,15.27
2022-10-06T15:34:38.829Z,15.23
2022-10-06T15:37:40.172Z,15.17
2022-10-06T15:40:41.505Z,15.11
2022-10-06T15:43:42.869Z,15.04
2022-10-06T15:46:55.784Z,14.98
2022-10-06T15:49:57.239Z,14.89
2022-10-06T15:52:58.654Z,14.85
2022-10-06T15:56:00.012Z,14.78
2022-10-06T15:59:01.401Z,14.71
2022-10-06T16:02:12.148Z,14.62
2022-10-06T16:05:13.629Z,14.56
2022-10-06T16:08:14.950Z,14.48
2022-10-06T16:11:16.435Z,14.41
2022-10-06T16:14:17.781Z,14.34
2022-10-06T16:17:19.189Z,14.26
2022-10-06T16:20:20.505Z,14.18
2022-10-06T16:23:22.268Z,14.11
2022-10-06T16:26:24.097Z,14.03
2022-10-06T16:29:26.730Z,13.93
2022-10-06T16:32:28.054Z,13.82
2022-10-06T16:35:29.361Z,13.73
2022-10-06T16:38:30.730Z,13.64
2022-10-06T16:41:32.591Z,13.58
2022-10-06T16:44:33.919Z,13.53
2022-10-06T16:47:35.250Z,13.48
2022-10-06T16:50:36.559Z,13.39
2022-10-06T16:53:46.540Z,13.35
2022-10-06T16:56:49.435Z,13.24
2022-10-06T16:59:51.222Z,13.15
2022-10-06T17:02:52.631Z,13.11
2022-10-06T17:05:53.956Z,13.05
2022-10-06T17:08:55.396Z,12.98
2022-10-06T17:11:59.575Z,12.91
2022-10-06T17:15:00.932Z,12.84
2022-10-06T17:18:02.284Z,12.78
2022-10-06T17:21:25.897Z,12.72
2022-10-06T17:24:29.370Z,12.67
2022-10-06T17:27:30.735Z,12.60
2022-10-06T17:30:32.065Z,12.57
2022-10-06T17:33:36.400Z,12.54
2022-10-06T17:36:39.202Z,12.42
2022-10-06T17:39:46.069Z,12.29
2022-10-06T17:42:48.290Z,12.19
2022-10-06T17:45:49.686Z,12.12
2022-10-06T17:48:52.988Z,12.07
2022-10-06T17:51:54.812Z,11.78
2022-10-06T17:54:56.209Z,11.93
2022-10-06T17:57:57.670Z,11.98
2022-10-06T18:01:07.450Z,11.99
2022-10-06T18:04:08.826Z,11.92
2022-10-06T18:07:10.187Z,11.88
2022-10-06T18:10:11.511Z,11.81
2022-10-06T18:13:12.858Z,11.74
2022-10-06T18:16:16.503Z,11.66
2022-10-06T18:19:20.302Z,11.59
2022-10-06T18:22:21.649Z,11.49
2022-10-06T18:25:26.730Z,11.44
2022-10-06T18:28:28.506Z,11.39
2022-10-06T18:31:30.099Z,11.37
2022-10-06T18:37:56.398Z,11.31
2022-10-06T18:41:01.551Z,11.27
2022-10-06T18:44:03.651Z,11.20
2022-10-06T18:47:05.106Z,11.13
2022-10-06T18:50:06.663Z,11.04
2022-10-06T18:53:08.241Z,10.98
2022-10-06T18:56:09.602Z,10.94
2022-10-06T18:59:11.859Z,10.90
2022-10-06T19:02:13.386Z,10.86
2022-10-06T19:05:14.979Z,10.84
2022-10-06T19:08:16.352Z,10.81
2022-10-06T19:11:17.704Z,10.79
2022-10-06T19:14:20.541Z,10.73
2022-10-06T19:17:21.852Z,10.70
2022-10-06T19:20:23.221Z,10.67
2022-10-06T19:23:24.557Z,10.66
2022-10-06T19:26:25.909Z,10.61
2022-10-06T19:29:27.690Z,10.59
2022-10-06T19:32:30.328Z,10.64
2022-10-06T19:35:31.646Z,10.64
2022-10-06T19:38:36.553Z,10.66
2022-10-06T19:41:38.926Z,10.63
2022-10-06T19:44:43.133Z,10.57
2022-10-06T19:47:45.263Z,10.53
2022-10-06T19:50:47.137Z,10.45
2022-10-06T19:53:48.452Z,10.38
2022-10-06T19:56:49.817Z,10.36
2022-10-06T19:59:51.165Z,10.34
2022-10-06T20:02:52.872Z,10.32
2022-10-06T20:05:54.203Z,10.29
2022-10-06T20:08:56.038Z,10.22
2022-10-06T20:11:58.494Z,10.18
2022-10-06T20:15:00.770Z,10.15
2022-10-06T20:18:02.090Z,10.12
2022-10-06T20:21:03.599Z,10.11
2022-10-06T20:24:07.522Z,10.09
2022-10-06T20:27:08.866Z,10.04
2022-10-06T20:30:10.689Z,10.02
2022-10-06T20:33:12.018Z,9.99
2022-10-06T20:36:13.355Z,9.94
2022-10-06T20:39:18.051Z,9.92
2022-10-06T20:42:20.623Z,9.88
2022-10-06T20:45:21.947Z,9.86
2022-10-06T20:48:23.301Z,9.87
2022-10-06T20:51:27.767Z,9.89
2022-10-06T20:54:29.325Z,9.89
2022-10-06T20:57:33.872Z,9.87
2022-10-06T21:00:35.407Z,9.86
2022-10-06T21:03:42.893Z,9.83
2022-10-06T21:06:44.241Z,9.75
2022-10-06T21:09:49.915Z,9.75
2022-10-06T21:12:53.282Z,9.74
2022-10-06T21:16:00.918Z,9.75
2022-10-06T21:19:04.381Z,9.71
2022-10-06T21:22:05.781Z,9.47
2022-10-06T21:25:07.604Z,9.61
2022-10-06T21:28:08.959Z,9.66
2022-10-06T21:31:13.316Z,9.72
2022-10-06T21:34:14.729Z,9.73
2022-10-06T21:37:16.063Z,9.73
2022-10-06T21:40:17.422Z,9.73
2022-10-06T21:43:18.844Z,9.71
2022-10-06T21:46:28.338Z,9.68
2022-10-06T21:49:30.398Z,9.63
2022-10-06T21:52:31.734Z,9.59
2022-10-06T21:55:33.058Z,9.56
2022-10-06T21:58:34.360Z,9.49
2022-10-06T22:01:38.142Z,9.40
2022-10-06T22:04:39.551Z,9.28
2022-10-06T22:07:41.336Z,9.17
2022-10-06T22:10:42.919Z,9.08
2022-10-06T22:13:47.188Z,9.02
2022-10-06T22:16:48.841Z,8.96
2022-10-06T22:19:50.161Z,8.92
2022-10-06T22:22:51.596Z,8.90
2022-10-06T22:25:56.827Z,8.89
2022-10-06T22:28:58.866Z,8.85
2022-10-06T22:32:00.213Z,8.87
2022-10-06T22:35:01.581Z,8.75
2022-10-06T22:38:02.888Z,8.48
2022-10-06T22:41:07.321Z,8.22
2022-10-06T22:44:08.638Z,8.02
2022-10-06T22:47:09.919Z,7.86
2022-10-06T22:50:11.245Z,7.78
2022-10-06T22:53:14.677Z,7.80
2022-10-06T22:56:15.904Z,7.59
2022-10-06T22:59:17.189Z,7.69
2022-10-06T23:02:18.508Z,7.73
2022-10-06T23:05:20.444Z,7.74
2022-10-06T23:08:21.824Z,7.72
2022-10-06T23:11:23.152Z,7.71
2022-10-06T23:14:24.436Z,7.66
2022-10-06T23:17:25.777Z,7.64
2022-10-06T23:20:27.073Z,7.61
2022-10-06T23:23:28.377Z,7.55
2022-10-06T23:26:31.780Z,7.54
2022-10-06T23:29:33.681Z,7.29
2022-10-06T23:32:34.974Z,7.35
2022-10-06T23:35:36.300Z,7.33
2022-10-06T23:38:38.525Z,7.34
2022-10-06T23:41:39.870Z,7.29
2022-10-06T23:44:41.185Z,7.26
2022-10-06T23:47:42.814Z,7.24
2022-10-06T23:50:55.199Z,7.19
2022-10-06T23:53:56.526Z,7.14
2022-10-06T23:56:57.833Z,7.14
2022-10-06T23:59:59.150Z,7.10
